Terminal Aerodrome Forecast
Issued by NWS Pittsburgh, PA

Current Version | Previous Version | Graphics & Text | Print | Product List | Glossary On
Versions: 1 2 3 4 5 6 7 8 9 10 11 12 13 14 15 16 17 18 19 20 21 22 23 24 25 26 27 28
000
FTUS41 KPBZ 251400 AAA
TAFPIT
TAF AMD
KPIT 251451Z 2515/2618 25012G20KT P6SM BKN020 OVC035
     FM252100 25010KT P6SM BKN025
     FM252200 24007KT P6SM BKN050
     FM260200 VRB04KT P6SM SCT250=

USA.gov is the U.S. government's official web portal to all federal, state and local government web resources and services.